Terminal Aerodrome Forecast
Issued by NWS

Home | Current Version | Previous Version | Text Only | Print | Product List | Glossary On
Versions: 1 2 3 4 5 6 7 8 9 10 11 12 13 14 15 16 17 18 19 20 21 22 23 24 25 26 27
414
FTUS46 KSEW 220736 AAA
TAFSEA
TAF AMD
KSEA 220736Z 2208/2312 08005KT 6SM BR SCT007 BKN035 OVC060
      TEMPO 2208/2210 2SM -SN BR BKN004 OVC020
     FM221100 02008KT P6SM SCT060 BKN120 BKN200
     FM222000 36008KT P6SM SCT120 BKN250
     FM230200 VRB04KT P6SM SCT120=

USA.gov is the U.S. government's official web portal to all federal, state and local government web resources and services.